Time;durP1;ratioP1;P1;durP2;ratioP2;P2;SDS_P1;SDS_P2;PMS_P1;PMS_P2;Temp;Humidity;BMP_temperature;BMP_pressure;BME280_temperature;BME280_humidity;BME280_pressure;Samples;Min_cycle;Max_cycle;Signal;HPM_P1;HPM_P2
2023/05/05 00:01:22;;;;;;;6.22;3.80;;;18.90;65.30;;;;;;5103120;27;20105;-80
2023/05/05 00:03:48;;;;;;;7.78;4.05;;;18.90;65.20;;;;;;5155457;27;20170;-81
2023/05/05 00:06:14;;;;;;;9.15;4.05;;;19.00;65.10;;;;;;5136563;27;20117;-81
2023/05/05 00:08:40;;;;;;;10.50;5.22;;;19.00;65.00;;;;;;5136826;27;20041;-80
2023/05/05 00:11:06;;;;;;;6.28;3.78;;;19.10;65.30;;;;;;5137166;27;20473;-81
2023/05/05 00:13:32;;;;;;;6.75;3.58;;;19.00;65.10;;;;;;5136856;27;20164;-81
2023/05/05 00:15:57;;;;;;;4.35;3.63;;;19.10;65.00;;;;;;5155429;27;20037;-81
2023/05/05 00:18:23;;;;;;;4.10;3.38;;;19.10;64.80;;;;;;5154796;27;20026;-80
2023/05/05 00:20:49;;;;;;;6.30;3.63;;;19.10;64.90;;;;;;5137039;27;20033;-81
2023/05/05 00:23:15;;;;;;;8.00;3.50;;;19.10;64.80;;;;;;5119380;27;20489;-80
2023/05/05 00:25:41;;;;;;;7.68;4.15;;;19.20;64.60;;;;;;5155023;27;20023;-81
2023/05/05 00:28:06;;;;;;;7.32;4.20;;;19.20;64.50;;;;;;5119395;27;20402;-81
2023/05/05 00:30:33;;;;;;;7.88;3.63;;;19.20;64.90;;;;;;5136355;27;20033;-81
2023/05/05 00:32:59;;;;;;;7.35;3.83;;;19.10;65.10;;;;;;5155263;27;20031;-81
2023/05/05 00:35:25;;;;;;;6.13;3.08;;;19.10;65.30;;;;;;5119221;27;20477;-80
2023/05/05 00:37:51;;;;;;;6.03;2.60;;;19.10;65.20;;;;;;5119334;27;20113;-82
2023/05/05 00:40:17;;;;;;;4.55;3.08;;;19.20;65.10;;;;;;5136265;27;20434;-81
2023/05/05 00:42:44;;;;;;;7.72;4.07;;;19.30;65.10;;;;;;5119645;27;20031;-82
2023/05/05 00:45:11;;;;;;;4.25;3.17;;;19.30;65.10;;;;;;5136148;27;20031;-81
2023/05/05 00:47:37;;;;;;;6.88;3.92;;;19.30;65.10;;;;;;5135816;27;20054;-81
2023/05/05 00:50:08;;;;;;;5.40;3.60;;;19.30;65.10;;;;;;5154447;27;20023;-80
2023/05/05 00:52:36;;;;;;;7.60;4.70;;;19.30;65.30;;;;;;5154828;27;20027;-81
2023/05/05 00:55:03;;;;;;;7.68;3.90;;;19.30;65.40;;;;;;5136184;27;20467;-81
2023/05/05 00:57:29;;;;;;;4.75;3.70;;;19.20;66.00;;;;;;5136714;27;20474;-81
2023/05/05 00:59:55;;;;;;;4.45;3.08;;;19.20;66.00;;;;;;5120884;27;20470;-82
2023/05/05 01:02:21;;;;;;;9.90;4.30;;;19.20;66.00;;;;;;5157071;27;20074;-82
2023/05/05 01:04:47;;;;;;;6.72;3.33;;;19.20;66.20;;;;;;5156807;27;20019;-81
2023/05/05 01:07:36;;;;;;;7.82;3.63;;;19.20;66.20;;;;;;5154346;27;20043;-82
2023/05/05 01:10:08;;;;;;;4.20;3.28;;;19.20;66.20;;;;;;5136729;27;20023;-82
2023/05/05 01:12:49;;;;;;;6.75;3.65;;;19.30;66.30;;;;;;5154627;27;20015;-82
2023/05/05 01:15:22;;;;;;;4.07;3.42;;;19.20;66.30;;;;;;5154910;27;20109;-82
2023/05/05 01:17:58;;;;;;;5.47;3.67;;;19.30;66.60;;;;;;5154921;27;20431;-82
2023/05/05 01:20:35;;;;;;;7.75;4.40;;;19.30;66.90;;;;;;5135892;27;20019;-81
2023/05/05 01:23:04;;;;;;;7.50;4.07;;;19.30;66.90;;;;;;5135668;27;20025;-81
2023/05/05 01:25:55;;;;;;;8.40;4.15;;;19.20;66.90;;;;;;5154308;27;20042;-81
2023/05/05 01:28:35;;;;;;;7.07;4.70;;;19.20;67.10;;;;;;5136216;27;20110;-81
2023/05/05 01:31:20;;;;;;;8.85;6.00;;;19.10;67.00;;;;;;5136431;27;20019;-80
2023/05/05 01:33:58;;;;;;;6.50;4.88;;;19.10;67.10;;;;;;5136294;27;20080;-81
2023/05/05 01:36:31;;;;;;;7.95;5.38;;;19.00;67.10;;;;;;5154071;27;20027;-81
2023/05/05 01:38:59;;;;;;;10.15;6.90;;;19.00;67.50;;;;;;5154044;27;20545;-81
2023/05/05 01:41:40;;;;;;;8.30;5.32;;;18.90;68.80;;;;;;5135961;27;20035;-81
2023/05/05 01:44:09;;;;;;;10.00;5.60;;;18.90;68.90;;;;;;5154367;27;20054;-81
2023/05/05 01:46:36;;;;;;;7.45;5.03;;;18.90;69.60;;;;;;5153879;27;20050;-82
2023/05/05 01:49:03;;;;;;;8.65;5.18;;;18.90;69.60;;;;;;5135734;27;20078;-81
2023/05/05 01:51:29;;;;;;;7.60;5.55;;;18.90;70.00;;;;;;5135504;27;20075;-82
2023/05/05 01:54:02;;;;;;;6.80;5.43;;;18.80;70.50;;;;;;5135435;27;20475;-81
2023/05/05 01:56:30;;;;;;;7.25;6.15;;;18.80;70.90;;;;;;5135628;27;20034;-81
2023/05/05 01:58:59;;;;;;;7.50;6.03;;;18.80;71.30;;;;;;5136215;27;20030;-81
2023/05/05 02:01:25;;;;;;;11.32;7.35;;;18.80;71.50;;;;;;5154181;27;20051;-80
2023/05/05 02:03:55;;;;;;;11.07;7.45;;;18.80;72.30;;;;;;5154136;27;20087;-81
2023/05/05 02:06:23;;;;;;;9.25;7.38;;;18.80;73.00;;;;;;5135778;27;20031;-81
2023/05/05 02:08:50;;;;;;;10.93;9.13;;;18.70;73.30;;;;;;5136389;27;20462;-81
2023/05/05 02:11:16;;;;;;;10.10;8.40;;;18.70;73.90;;;;;;5139119;27;20535;-81
2023/05/05 02:13:43;;;;;;;10.55;8.70;;;18.70;74.50;;;;;;5157920;27;20104;-80
2023/05/05 02:16:10;;;;;;;9.80;8.60;;;18.70;75.00;;;;;;5158527;27;20023;-82
2023/05/05 02:18:36;;;;;;;9.45;7.53;;;18.60;75.30;;;;;;5158365;27;20023;-82
2023/05/05 02:21:02;;;;;;;11.70;8.32;;;18.60;75.70;;;;;;5139259;27;20082;-82
2023/05/05 02:23:29;;;;;;;9.07;7.82;;;18.60;75.80;;;;;;5157733;27;20031;-81
2023/05/05 02:25:59;;;;;;;8.90;7.10;;;18.60;75.90;;;;;;5157453;27;20445;-81
2023/05/05 02:28:47;;;;;;;9.02;7.50;;;18.60;76.20;;;;;;5139437;27;20030;-81
2023/05/05 02:31:15;;;;;;;9.77;6.95;;;18.60;76.50;;;;;;5157406;27;20033;-81
2023/05/05 02:33:43;;;;;;;9.60;6.65;;;18.60;76.30;;;;;;5157040;27;20074;-82
2023/05/05 02:36:19;;;;;;;7.47;5.97;;;18.60;76.40;;;;;;5157190;27;20027;-81
2023/05/05 02:38:47;;;;;;;7.00;5.97;;;18.60;76.50;;;;;;5139416;27;20423;-81
2023/05/05 02:41:18;;;;;;;8.05;5.50;;;18.60;76.30;;;;;;5121971;27;20354;-81
2023/05/05 02:43:47;;;;;;;5.75;5.05;;;18.60;76.20;;;;;;5157373;27;20033;-80
2023/05/05 02:46:13;;;;;;;5.43;4.70;;;18.70;76.10;;;;;;5156887;27;20079;-81
2023/05/05 02:48:38;;;;;;;5.55;4.43;;;18.70;76.10;;;;;;5157338;27;20405;-81
2023/05/05 02:51:04;;;;;;;6.40;5.00;;;18.70;76.10;;;;;;5157003;27;20023;-81
2023/05/05 02:53:30;;;;;;;7.68;6.65;;;18.70;76.00;;;;;;5157531;27;20165;-80
2023/05/05 02:56:10;;;;;;;11.65;8.85;;;18.60;76.80;;;;;;5138525;27;20502;-80
2023/05/05 02:58:45;;;;;;;10.85;9.07;;;18.50;78.20;;;;;;5140106;27;20030;-81
2023/05/05 03:01:27;;;;;;;12.65;9.88;;;18.40;79.50;;;;;;5158970;27;20030;-81
2023/05/05 03:03:58;;;;;;;10.38;8.95;;;18.30;79.70;;;;;;5139450;27;20030;-79
2023/05/05 03:06:27;;;;;;;11.63;9.45;;;18.30;79.60;;;;;;5138372;27;20023;-80
2023/05/05 03:09:07;;;;;;;13.38;10.20;;;18.20;80.50;;;;;;5156745;27;20426;-80
2023/05/05 03:11:45;;;;;;;10.05;8.55;;;18.10;80.80;;;;;;5156612;27;20054;-81
2023/05/05 03:14:17;;;;;;;10.55;8.57;;;18.00;80.70;;;;;;5137905;27;20060;-80
2023/05/05 03:16:44;;;;;;;11.75;9.32;;;18.10;80.70;;;;;;5156465;27;20027;-81
2023/05/05 03:19:13;;;;;;;9.98;8.35;;;18.10;80.70;;;;;;5138508;27;20118;-81
2023/05/05 03:21:39;;;;;;;9.35;8.32;;;18.10;80.60;;;;;;5156267;27;20114;-81
2023/05/05 03:24:19;;;;;;;8.77;7.88;;;18.10;80.60;;;;;;5137645;27;20023;-81
2023/05/05 03:26:46;;;;;;;12.73;9.30;;;18.20;80.60;;;;;;5121902;27;20408;-81
2023/05/05 03:29:13;;;;;;;13.30;9.52;;;18.20;80.50;;;;;;5155994;27;20115;-81
2023/05/05 03:31:38;;;;;;;13.60;10.43;;;18.20;80.70;;;;;;5156441;27;20419;-81
2023/05/05 03:34:05;;;;;;;10.20;9.20;;;18.20;80.90;;;;;;5120421;27;20105;-81
2023/05/05 03:36:30;;;;;;;15.43;11.25;;;18.20;81.10;;;;;;5137299;27;20027;-80
2023/05/05 03:38:57;;;;;;;11.13;9.93;;;18.20;81.60;;;;;;5155940;27;20351;-81
2023/05/05 03:41:23;;;;;;;12.35;10.82;;;18.00;82.30;;;;;;5120190;27;20103;-81
2023/05/05 03:43:49;;;;;;;14.02;12.13;;;18.10;82.00;;;;;;5137492;27;20025;-81
2023/05/05 03:46:15;;;;;;;12.38;11.07;;;18.10;82.50;;;;;;5137247;27;20027;-81
2023/05/05 03:48:41;;;;;;;13.15;11.75;;;18.10;82.40;;;;;;5137865;27;20034;-80
2023/05/05 03:51:07;;;;;;;17.02;13.02;;;18.00;82.60;;;;;;5120221;27;20094;-80
2023/05/05 03:53:33;;;;;;;15.20;13.43;;;18.00;82.80;;;;;;5119780;27;20030;-80
2023/05/05 03:55:59;;;;;;;15.32;12.27;;;18.00;83.10;;;;;;5155502;27;20163;-80
2023/05/05 03:58:25;;;;;;;16.60;13.35;;;18.00;83.10;;;;;;5155928;27;20036;-80
2023/05/05 04:00:50;;;;;;;16.15;13.55;;;17.90;83.10;;;;;;5136808;27;20037;-80
2023/05/05 04:03:16;;;;;;;17.55;13.10;;;17.90;84.00;;;;;;5137072;27;20066;-80
2023/05/05 04:05:42;;;;;;;17.67;14.25;;;17.80;84.00;;;;;;5155921;27;20027;-80
2023/05/05 04:08:07;;;;;;;18.15;14.82;;;17.80;84.40;;;;;;5155778;27;20066;-80
2023/05/05 04:10:33;;;;;;;19.63;13.93;;;17.70;84.80;;;;;;5136862;27;20078;-80
2023/05/05 04:12:59;;;;;;;16.35;14.52;;;17.70;85.40;;;;;;5136750;27;20062;-80
2023/05/05 04:15:25;;;;;;;17.77;13.93;;;17.60;85.30;;;;;;5136871;27;20023;-80
2023/05/05 04:17:50;;;;;;;18.15;13.73;;;17.60;85.60;;;;;;5137126;27;20455;-80
2023/05/05 04:20:16;;;;;;;19.65;14.75;;;17.50;86.20;;;;;;5119952;27;20352;-80
2023/05/05 04:22:42;;;;;;;15.25;13.02;;;17.50;86.50;;;;;;5137461;27;20035;-80
2023/05/05 04:25:08;;;;;;;16.38;12.95;;;17.50;86.40;;;;;;5154837;27;20023;-80
2023/05/05 04:27:34;;;;;;;16.80;13.02;;;17.50;86.50;;;;;;5137329;27;20049;-80
2023/05/05 04:30:00;;;;;;;17.20;14.05;;;17.50;86.60;;;;;;5155187;27;20030;-80
2023/05/05 04:32:25;;;;;;;15.27;13.00;;;17.50;86.80;;;;;;5119082;27;20079;-79
2023/05/05 04:34:52;;;;;;;14.27;12.32;;;17.50;86.90;;;;;;5137044;27;20041;-80
2023/05/05 04:37:18;;;;;;;16.70;12.60;;;17.50;87.00;;;;;;5140374;27;20051;-80
2023/05/05 04:39:45;;;;;;;15.85;13.65;;;17.60;87.20;;;;;;5139605;27;20018;-80
2023/05/05 04:42:11;;;;;;;15.65;11.80;;;17.60;87.20;;;;;;5159342;27;20031;-80
2023/05/05 04:44:36;;;;;;;14.32;12.40;;;17.60;87.30;;;;;;5138988;27;20328;-79
2023/05/05 04:47:03;;;;;;;14.82;12.13;;;17.70;87.40;;;;;;5156510;27;20490;-79
2023/05/05 04:49:29;;;;;;;16.30;12.60;;;17.70;87.50;;;;;;5136560;27;20092;-80
2023/05/05 04:51:55;;;;;;;15.60;12.02;;;17.70;87.70;;;;;;5155122;27;20079;-79
2023/05/05 04:54:21;;;;;;;13.95;11.35;;;17.70;87.60;;;;;;5138991;27;20022;-80
2023/05/05 04:56:47;;;;;;;13.80;11.48;;;17.80;87.70;;;;;;5158780;27;20041;-81
2023/05/05 04:59:14;;;;;;;13.15;10.95;;;17.70;87.70;;;;;;5120581;27;20023;-81
2023/05/05 05:01:40;;;;;;;13.32;10.98;;;17.70;88.10;;;;;;5156173;27;20043;-80
2023/05/05 05:04:05;;;;;;;13.55;11.50;;;17.80;88.10;;;;;;5155176;27;20022;-80
2023/05/05 05:06:31;;;;;;;12.95;10.88;;;17.70;88.60;;;;;;5136025;27;20070;-80
2023/05/05 05:08:57;;;;;;;12.30;11.05;;;17.60;89.30;;;;;;5154862;27;20035;-80
2023/05/05 05:11:22;;;;;;;13.82;10.68;;;17.60;89.40;;;;;;5155084;27;20071;-80
2023/05/05 05:13:48;;;;;;;11.82;10.30;;;17.50;90.10;;;;;;5118948;27;20027;-81
2023/05/05 05:16:14;;;;;;;15.20;10.65;;;17.50;90.10;;;;;;5136873;27;20315;-81
2023/05/05 05:18:40;;;;;;;16.77;11.07;;;17.40;90.20;;;;;;5136211;27;20348;-80
2023/05/05 05:21:06;;;;;;;13.52;10.55;;;17.40;90.50;;;;;;5154381;27;20035;-80
2023/05/05 05:23:32;;;;;;;14.40;11.45;;;17.30;90.70;;;;;;5136080;27;20041;-80
2023/05/05 05:25:57;;;;;;;13.10;10.90;;;17.20;91.00;;;;;;5154178;27;20467;-80
2023/05/05 05:28:23;;;;;;;13.40;10.18;;;17.20;91.40;;;;;;5154791;27;20031;-79
2023/05/05 05:30:49;;;;;;;10.80;9.02;;;17.20;91.60;;;;;;5136156;27;20034;-80
2023/05/05 05:33:15;;;;;;;13.70;9.65;;;17.20;91.80;;;;;;5136673;27;20034;-80
2023/05/05 05:35:40;;;;;;;12.15;9.30;;;17.10;92.10;;;;;;5135978;27;20030;-80
2023/05/05 05:38:06;;;;;;;10.88;8.23;;;17.10;92.40;;;;;;5136607;27;20402;-81
2023/05/05 05:40:32;;;;;;;15.40;8.75;;;17.20;92.60;;;;;;5136313;27;20019;-80
2023/05/05 05:42:57;;;;;;;10.75;7.80;;;17.20;92.80;;;;;;5135828;27;20075;-80
2023/05/05 05:45:23;;;;;;;10.98;7.65;;;17.20;92.70;;;;;;5121352;27;20055;-81
2023/05/05 05:47:49;;;;;;;9.68;7.60;;;17.30;92.90;;;;;;5119114;27;20055;-81
2023/05/05 05:50:14;;;;;;;12.45;7.68;;;17.30;93.10;;;;;;5119554;27;20034;-80
2023/05/05 05:52:40;;;;;;;9.93;7.38;;;17.30;93.00;;;;;;5136268;27;20507;-81
2023/05/05 05:55:06;;;;;;;11.30;6.63;;;17.30;93.10;;;;;;5137762;27;20031;-81
2023/05/05 05:57:32;;;;;;;9.88;7.10;;;17.40;93.30;;;;;;5118786;27;20039;-80
2023/05/05 05:59:58;;;;;;;10.38;6.88;;;17.40;93.50;;;;;;5137371;27;20031;-80
2023/05/05 06:02:25;;;;;;;10.23;6.45;;;17.40;93.50;;;;;;5118982;27;20034;-80
2023/05/05 06:04:51;;;;;;;9.85;6.38;;;17.50;93.50;;;;;;5135948;27;20427;-81
2023/05/05 06:07:16;;;;;;;9.57;6.75;;;17.50;93.50;;;;;;5136813;27;20031;-80
2023/05/05 06:09:42;;;;;;;9.95;6.50;;;17.60;93.70;;;;;;5136305;27;20027;-81
2023/05/05 06:12:08;;;;;;;7.65;5.78;;;17.60;93.80;;;;;;5118922;27;20023;-80
2023/05/05 06:14:34;;;;;;;8.60;6.55;;;17.70;93.90;;;;;;5136140;27;20027;-80
2023/05/05 06:17:00;;;;;;;12.90;6.28;;;17.70;93.90;;;;;;5135634;27;20027;-81
2023/05/05 06:19:26;;;;;;;10.20;6.07;;;17.80;94.00;;;;;;5137163;27;20030;-80
2023/05/05 06:21:51;;;;;;;9.55;5.65;;;17.90;94.00;;;;;;5137114;27;20023;-81
2023/05/05 06:24:17;;;;;;;6.97;5.68;;;18.00;93.90;;;;;;5135870;27;20320;-81
2023/05/05 06:26:43;;;;;;;8.80;6.28;;;18.00;93.80;;;;;;5135396;27;20374;-81
2023/05/05 06:29:08;;;;;;;9.20;5.75;;;18.10;93.90;;;;;;5136724;27;20022;-81
2023/05/05 06:31:35;;;;;;;8.88;6.00;;;18.20;93.80;;;;;;5136537;27;20074;-80
2023/05/05 06:34:00;;;;;;;8.43;5.80;;;18.20;93.80;;;;;;5136727;27;20023;-81
2023/05/05 06:36:26;;;;;;;13.20;6.50;;;18.30;93.90;;;;;;5135534;27;20075;-80
2023/05/05 06:38:52;;;;;;;10.52;6.28;;;18.40;94.30;;;;;;5135282;27;20027;-81
2023/05/05 06:41:18;;;;;;;9.75;5.95;;;18.40;94.20;;;;;;5136256;27;20042;-80
2023/05/05 06:43:44;;;;;;;11.48;6.70;;;18.50;94.00;;;;;;5136325;27;20023;-80
2023/05/05 06:46:10;;;;;;;9.75;5.70;;;18.50;94.00;;;;;;5138272;27;20039;-80
2023/05/05 06:48:35;;;;;;;11.55;7.75;;;18.70;93.90;;;;;;5157185;27;20022;-80
2023/05/05 06:51:01;;;;;;;11.18;7.03;;;18.70;94.50;;;;;;5138627;27;20364;-80
2023/05/05 06:53:27;;;;;;;11.02;7.22;;;18.80;94.40;;;;;;5156783;27;20056;-80
2023/05/05 06:55:53;;;;;;;8.45;7.00;;;18.90;94.30;;;;;;5142129;27;20059;-81
2023/05/05 06:58:20;;;;;;;8.20;6.03;;;19.00;94.10;;;;;;5141491;27;20027;-81
2023/05/05 07:00:46;;;;;;;7.22;4.95;;;19.00;93.50;;;;;;5139876;27;20102;-81
2023/05/05 07:03:11;;;;;;;10.38;6.55;;;19.10;93.20;;;;;;5157244;27;20031;-81
2023/05/05 07:05:37;;;;;;;9.57;6.53;;;19.20;93.00;;;;;;5157025;27;20027;-80
2023/05/05 07:08:03;;;;;;;9.77;6.07;;;19.20;92.90;;;;;;5139577;27;20360;-81
2023/05/05 07:10:30;;;;;;;9.85;7.40;;;19.30;92.80;;;;;;5139317;27;20023;-81
2023/05/05 07:12:56;;;;;;;10.50;7.00;;;19.30;92.90;;;;;;5122454;27;20034;-81
2023/05/05 07:15:22;;;;;;;11.57;7.15;;;19.30;93.00;;;;;;5138801;27;20038;-81
2023/05/05 07:17:48;;;;;;;12.63;6.90;;;19.30;93.20;;;;;;5138153;27;20048;-81
2023/05/05 07:20:13;;;;;;;10.88;7.28;;;19.30;93.10;;;;;;5156633;27;20481;-80
2023/05/05 07:22:39;;;;;;;12.57;8.52;;;19.30;93.10;;;;;;5156752;27;20113;-81
2023/05/05 07:25:05;;;;;;;9.38;7.03;;;19.30;93.10;;;;;;5156201;27;20103;-81
2023/05/05 07:27:34;;;;;;;8.35;6.93;;;19.40;93.10;;;;;;5137917;27;20466;-81
2023/05/05 07:30:00;;;;;;;9.13;6.80;;;19.50;93.00;;;;;;5137626;27;20122;-81
2023/05/05 07:32:26;;;;;;;14.20;7.60;;;19.50;92.90;;;;;;5137861;27;20502;-81
2023/05/05 07:34:52;;;;;;;10.90;7.38;;;19.50;92.90;;;;;;5137682;27;20039;-81
2023/05/05 07:37:17;;;;;;;13.50;7.55;;;19.60;92.70;;;;;;5137665;27;20127;-81
2023/05/05 07:39:43;;;;;;;14.57;7.47;;;19.70;92.60;;;;;;5120975;27;20359;-81
2023/05/05 07:42:09;;;;;;;12.10;7.68;;;19.80;92.30;;;;;;5137575;27;20076;-81
2023/05/05 07:44:35;;;;;;;13.52;8.30;;;19.90;92.10;;;;;;5137321;27;20416;-81
2023/05/05 07:47:01;;;;;;;9.95;7.28;;;20.00;92.10;;;;;;5137166;27;20055;-81
2023/05/05 07:49:26;;;;;;;11.35;7.35;;;20.00;91.90;;;;;;5137703;27;20117;-81
2023/05/05 07:51:53;;;;;;;13.48;6.97;;;20.10;91.70;;;;;;5137327;27;20027;-81
2023/05/05 07:54:19;;;;;;;11.93;6.78;;;20.20;91.60;;;;;;5137517;27;20054;-81
2023/05/05 07:56:45;;;;;;;14.48;7.05;;;20.30;91.70;;;;;;5155892;27;20058;-81
2023/05/05 07:59:11;;;;;;;10.32;6.53;;;20.40;91.40;;;;;;5155768;27;20069;-81
2023/05/05 08:01:37;;;;;;;10.63;6.03;;;20.40;91.10;;;;;;5137069;27;20030;-81
2023/05/05 08:04:03;;;;;;;9.27;6.78;;;20.50;90.90;;;;;;5156037;27;20062;-81
2023/05/05 08:06:30;;;;;;;10.27;6.65;;;20.70;90.80;;;;;;5154700;27;20223;-81
2023/05/05 08:08:58;;;;;;;9.27;6.30;;;20.70;90.30;;;;;;5155530;27;20034;-81
2023/05/05 08:11:25;;;;;;;9.25;6.15;;;20.80;89.80;;;;;;5136639;27;20122;-82
2023/05/05 08:13:51;;;;;;;12.32;5.38;;;20.80;89.50;;;;;;5137346;27;20027;-81
2023/05/05 08:16:16;;;;;;;6.93;5.32;;;20.90;89.20;;;;;;5119872;27;20088;-81
2023/05/05 08:18:42;;;;;;;7.82;5.20;;;20.90;88.30;;;;;;5155315;27;20071;-81
2023/05/05 08:21:09;;;;;;;10.52;5.78;;;20.90;87.60;;;;;;5120045;27;20123;-82
2023/05/05 08:23:35;;;;;;;10.38;6.25;;;21.00;87.40;;;;;;5136586;27;20427;-81
2023/05/05 08:26:02;;;;;;;7.97;5.80;;;21.10;86.90;;;;;;5155393;27;20027;-82
2023/05/05 08:28:28;;;;;;;8.45;5.43;;;21.10;86.60;;;;;;5136288;27;20386;-81
2023/05/05 08:30:54;;;;;;;9.52;5.35;;;21.10;86.70;;;;;;5136971;27;20023;-81
2023/05/05 08:33:20;;;;;;;9.60;4.95;;;21.20;87.80;;;;;;5154873;27;20039;-82
2023/05/05 08:35:48;;;;;;;8.25;4.88;;;21.30;86.70;;;;;;5137208;27;20356;-81
2023/05/05 08:38:14;;;;;;;9.98;4.97;;;21.40;86.30;;;;;;5137109;27;20083;-82
2023/05/05 08:40:40;;;;;;;6.82;4.10;;;21.50;86.10;;;;;;5155391;27;20462;-81
2023/05/05 08:43:06;;;;;;;7.10;3.47;;;21.60;85.70;;;;;;5136378;27;20014;-81
2023/05/05 08:45:32;;;;;;;8.35;4.28;;;21.70;84.90;;;;;;5119360;27;20037;-81
2023/05/05 08:48:03;;;;;;;7.93;5.40;;;21.80;83.70;;;;;;5119250;27;20062;-80
2023/05/05 08:50:30;;;;;;;7.78;4.43;;;21.90;83.30;;;;;;5155067;27;20050;-81
2023/05/05 08:53:20;;;;;;;7.93;3.80;;;22.00;83.30;;;;;;5155771;27;20031;-81
2023/05/05 08:55:55;;;;;;;6.88;4.15;;;22.00;81.80;;;;;;5155114;27;20477;-81
2023/05/05 08:58:24;;;;;;;6.03;3.97;;;22.00;82.20;;;;;;5137192;27;20033;-81
2023/05/05 09:00:51;;;;;;;5.30;3.72;;;22.10;82.10;;;;;;5155363;27;20117;-81
2023/05/05 09:03:17;;;;;;;5.80;3.40;;;22.20;80.80;;;;;;5136176;27;20508;-81
2023/05/05 09:05:43;;;;;;;4.60;2.70;;;22.10;80.20;;;;;;5102052;27;20129;-81
2023/05/05 09:08:12;;;;;;;7.95;2.97;;;22.00;79.50;;;;;;5155072;27;20034;-81
2023/05/05 09:10:41;;;;;;;6.72;2.33;;;22.00;78.80;;;;;;5136388;27;20115;-81
2023/05/05 09:13:07;;;;;;;4.50;1.60;;;22.00;77.60;;;;;;5136547;27;20038;-81
2023/05/05 09:15:33;;;;;;;3.17;1.40;;;21.90;77.70;;;;;;5154871;27;20058;-81
2023/05/05 09:18:00;;;;;;;4.15;1.65;;;21.80;77.60;;;;;;5155078;27;20590;-81
2023/05/05 09:20:34;;;;;;;5.35;1.80;;;21.70;77.90;;;;;;5140173;27;20071;-80
2023/05/05 09:23:08;;;;;;;2.92;1.40;;;21.60;78.50;;;;;;5140265;27;20527;-81
2023/05/05 09:25:33;;;;;;;3.45;1.30;;;21.50;78.20;;;;;;5140396;27;20038;-80
2023/05/05 09:28:10;;;;;;;5.22;1.85;;;21.50;77.80;;;;;;5123292;27;20035;-80
2023/05/05 09:30:37;;;;;;;2.63;1.63;;;21.40;77.60;;;;;;5159142;27;20022;-81
2023/05/05 09:33:03;;;;;;;5.65;1.60;;;21.40;78.10;;;;;;5140242;27;20168;-81
2023/05/05 09:35:55;;;;;;;5.07;2.30;;;21.30;78.30;;;;;;5140597;27;20060;-81
2023/05/05 09:38:22;;;;;;;6.53;2.60;;;21.30;79.00;;;;;;5158631;27;20466;-82
2023/05/05 09:40:52;;;;;;;3.40;2.20;;;21.40;79.30;;;;;;5159397;27;20110;-81
2023/05/05 09:43:20;;;;;;;5.22;2.00;;;21.40;79.40;;;;;;5140106;27;20060;-81
2023/05/05 09:45:47;;;;;;;5.60;3.15;;;21.50;79.10;;;;;;5139855;27;20037;-82
2023/05/05 09:48:31;;;;;;;4.30;2.75;;;21.50;78.80;;;;;;5158213;27;20042;-81
2023/05/05 09:50:58;;;;;;;7.60;3.67;;;21.50;79.90;;;;;;5139667;27;20062;-81
2023/05/05 09:53:25;;;;;;;7.18;4.05;;;21.60;80.80;;;;;;5157941;27;20054;-81
2023/05/05 09:55:55;;;;;;;6.25;3.97;;;21.50;80.70;;;;;;5139802;27;20079;-82
2023/05/05 09:58:23;;;;;;;6.57;3.50;;;21.50;80.70;;;;;;5158466;27;20113;-82
2023/05/05 10:00:49;;;;;;;7.05;2.80;;;21.50;79.90;;;;;;5157902;27;20098;-82
2023/05/05 10:03:16;;;;;;;6.30;3.50;;;21.50;80.00;;;;;;5139276;27;20398;-82
2023/05/05 10:05:51;;;;;;;5.93;2.90;;;21.50;80.30;;;;;;5139233;27;20087;-81
2023/05/05 10:08:27;;;;;;;4.18;3.13;;;21.40;79.80;;;;;;5139581;27;20065;-82
2023/05/05 10:10:59;;;;;;;7.13;3.90;;;21.40;80.60;;;;;;5157951;27;20022;-81
2023/05/05 10:13:25;;;;;;;6.90;3.30;;;21.40;80.20;;;;;;5157613;27;20019;-81
2023/05/05 10:15:53;;;;;;;6.88;3.65;;;21.40;80.30;;;;;;5157854;27;20030;-82
2023/05/05 10:18:30;;;;;;;5.25;3.20;;;21.30;80.20;;;;;;5139155;27;20019;-82
2023/05/05 10:20:58;;;;;;;5.22;2.70;;;21.20;80.00;;;;;;5157782;27;20399;-81
2023/05/05 10:23:37;;;;;;;4.43;2.60;;;21.20;80.50;;;;;;5139502;27;20071;-81
2023/05/05 10:26:06;;;;;;;3.00;2.30;;;21.10;80.50;;;;;;5139353;27;20027;-81
2023/05/05 10:29:06;;;;;;;4.78;3.20;;;21.10;80.50;;;;;;5157543;27;20078;-81
2023/05/05 10:31:34;;;;;;;5.35;3.03;;;21.10;79.70;;;;;;5157142;27;20065;-82
2023/05/05 10:34:08;;;;;;;6.70;3.10;;;21.00;80.10;;;;;;5139625;27;20130;-82
2023/05/05 10:36:36;;;;;;;5.93;2.95;;;21.00;80.60;;;;;;5157617;27;20109;-82
2023/05/05 10:39:05;;;;;;;7.60;2.97;;;21.00;80.90;;;;;;5157104;27;20046;-82
2023/05/05 10:41:32;;;;;;;6.93;3.20;;;20.90;80.80;;;;;;5157212;27;20074;-81
2023/05/05 10:43:59;;;;;;;3.30;2.20;;;20.90;80.80;;;;;;5157385;27;20031;-81
2023/05/05 10:46:27;;;;;;;3.67;2.35;;;20.90;80.80;;;;;;5121237;27;20494;-81
2023/05/05 10:48:58;;;;;;;7.55;2.03;;;20.90;80.90;;;;;;5123859;27;20080;-81
2023/05/05 10:51:35;;;;;;;3.45;1.50;;;20.90;80.60;;;;;;5158842;27;20026;-81
2023/05/05 10:54:09;;;;;;;5.45;1.50;;;20.90;79.80;;;;;;5160603;27;20041;-81
2023/05/05 10:56:39;;;;;;;3.60;1.73;;;20.90;80.00;;;;;;5141961;27;20026;-81
2023/05/05 10:59:36;;;;;;;3.72;1.80;;;20.90;80.40;;;;;;5139555;27;20027;-81
2023/05/05 11:02:28;;;;;;;5.63;2.42;;;20.90;80.80;;;;;;5138505;27;20114;-81
2023/05/05 11:05:06;;;;;;;6.00;2.38;;;21.00;81.10;;;;;;5157043;27;20023;-82
2023/05/05 11:07:33;;;;;;;5.80;1.98;;;20.90;80.80;;;;;;5138737;27;20068;-82
2023/05/05 11:10:04;;;;;;;4.38;1.75;;;20.80;81.10;;;;;;5138768;27;20023;-80
2023/05/05 11:12:31;;;;;;;5.03;2.00;;;20.80;81.20;;;;;;5157187;27;20050;-81
2023/05/05 11:15:25;;;;;;;4.68;2.15;;;20.80;81.10;;;;;;5156669;27;20030;-81
2023/05/05 11:17:51;;;;;;;4.55;2.10;;;20.70;81.70;;;;;;5156517;27;20029;-81
2023/05/05 11:20:42;;;;;;;5.43;1.85;;;20.60;82.30;;;;;;5156641;27;20034;-76
2023/05/05 11:23:07;;;;;;;3.40;1.50;;;20.60;83.70;;;;;;5137543;27;20067;-79
2023/05/05 11:25:37;;;;;;;4.43;0.40;;;20.50;83.60;;;;;;5137930;27;20122;-81
2023/05/05 11:28:10;;;;;;;2.33;0.30;;;20.50;84.20;;;;;;5138585;27;20027;-81
2023/05/05 11:30:56;;;;;;;2.05;0.50;;;20.40;84.50;;;;;;5156599;27;20034;-80
2023/05/05 11:33:37;;;;;;;2.03;0.70;;;20.40;86.80;;;;;;5156161;27;20023;-81
2023/05/05 11:36:14;;;;;;;3.22;0.70;;;20.30;86.90;;;;;;5138098;27;20060;-81
2023/05/05 11:39:01;;;;;;;2.55;0.70;;;20.30;87.30;;;;;;5137864;27;20525;-81
2023/05/05 11:41:32;;;;;;;3.50;1.08;;;20.30;87.70;;;;;;5138248;27;20057;-82
2023/05/05 11:44:15;;;;;;;1.00;0.10;;;20.10;88.40;;;;;;5138116;27;20023;-81
2023/05/05 11:47:03;;;;;;;0.38;0.10;;;19.60;82.80;;;;;;5155976;27;20047;-81
2023/05/05 11:49:33;;;;;;;2.15;0.05;;;19.00;85.20;;;;;;5137190;27;20428;-81
2023/05/05 11:52:03;;;;;;;0.50;0.10;;;18.60;87.00;;;;;;5137259;27;20149;-79
2023/05/05 11:54:29;;;;;;;2.05;0.20;;;18.10;90.10;;;;;;5155971;27;20346;-80
2023/05/05 11:57:07;;;;;;;0.60;0.00;;;17.80;91.10;;;;;;5155362;27;20462;-80
2023/05/05 11:59:36;;;;;;;0.77;0.10;;;17.50;92.00;;;;;;5121072;27;20031;-80
2023/05/05 12:02:02;;;;;;;2.80;0.10;;;17.20;92.60;;;;;;5137126;27;20031;-80
2023/05/05 12:04:30;;;;;;;1.60;0.10;;;17.10;93.50;;;;;;5155219;27;20110;-79
2023/05/05 12:06:57;;;;;;;0.90;0.10;;;17.10;94.20;;;;;;5137185;27;20046;-79
2023/05/05 12:09:23;;;;;;;1.48;0.10;;;17.00;94.90;;;;;;5155049;27;20601;-79
2023/05/05 12:11:53;;;;;;;1.10;0.10;;;16.70;95.50;;;;;;5119486;27;20109;-78
2023/05/05 12:14:19;;;;;;;2.08;0.17;;;16.60;96.70;;;;;;5155303;27;20466;-78
2023/05/05 12:17:07;;;;;;;1.92;0.20;;;16.40;97.40;;;;;;5137428;27;20034;-79
2023/05/05 12:19:34;;;;;;;2.40;0.20;;;16.50;97.90;;;;;;5155133;27;20080;-79
2023/05/05 12:22:00;;;;;;;2.17;0.20;;;16.50;98.60;;;;;;5155328;27;20035;-78
2023/05/05 12:24:26;;;;;;;3.20;0.25;;;16.50;99.00;;;;;;5119673;27;20122;-78
2023/05/05 12:26:52;;;;;;;2.05;0.20;;;16.50;99.20;;;;;;5136445;27;20469;-78
2023/05/05 12:29:27;;;;;;;1.77;0.20;;;16.50;99.80;;;;;;5155088;27;20378;-78
2023/05/05 12:31:53;;;;;;;2.08;0.20;;;16.60;99.70;;;;;;5154381;27;20462;-78
2023/05/05 12:34:20;;;;;;;1.95;0.20;;;16.60;99.90;;;;;;5154772;27;20029;-78
2023/05/05 12:36:46;;;;;;;2.17;0.10;;;16.70;99.90;;;;;;5136436;27;20049;-77
2023/05/05 12:39:12;;;;;;;1.13;0.20;;;16.70;99.90;;;;;;5119635;27;20122;-80
2023/05/05 12:41:38;;;;;;;1.15;0.20;;;16.90;99.90;;;;;;5119141;27;20054;-76
2023/05/05 12:44:04;;;;;;;3.08;0.47;;;16.90;99.90;;;;;;5119424;27;20472;-79
2023/05/05 12:46:30;;;;;;;1.67;0.17;;;17.00;99.90;;;;;;5136579;27;20075;-78
2023/05/05 12:49:06;;;;;;;2.42;0.10;;;17.10;99.90;;;;;;5137641;27;20027;-79